sensor_id;sensor_type;location;lat;lon;timestamp;temperature;humidity
23544;DHT22;11950;51.230;4.012;2023-02-03T00:01:35;11.30;99.90
23544;DHT22;11950;51.230;4.012;2023-02-03T00:04:01;11.30;99.90
23544;DHT22;11950;51.230;4.012;2023-02-03T00:06:27;11.30;99.90
23544;DHT22;11950;51.230;4.012;2023-02-03T00:08:56;11.40;99.90
23544;DHT22;11950;51.230;4.012;2023-02-03T00:11:25;11.30;99.90
23544;DHT22;11950;51.230;4.012;2023-02-03T00:13:52;11.30;99.90
23544;DHT22;11950;51.230;4.012;2023-02-03T00:16:18;11.40;99.90
23544;DHT22;11950;51.230;4.012;2023-02-03T00:18:44;11.40;99.90
23544;DHT22;11950;51.230;4.012;2023-02-03T00:21:10;11.40;99.90
23544;DHT22;11950;51.230;4.012;2023-02-03T00:23:40;11.40;99.90
23544;DHT22;11950;51.230;4.012;2023-02-03T00:26:11;11.40;99.90
23544;DHT22;11950;51.230;4.012;2023-02-03T00:28:40;11.40;99.90
23544;DHT22;11950;51.230;4.012;2023-02-03T00:31:17;11.40;99.90
23544;DHT22;11950;51.230;4.012;2023-02-03T00:33:46;11.40;99.90
23544;DHT22;11950;51.230;4.012;2023-02-03T00:36:13;11.40;99.90
23544;DHT22;11950;51.230;4.012;2023-02-03T00:38:39;11.50;99.90
23544;DHT22;11950;51.230;4.012;2023-02-03T00:41:06;11.50;99.90
23544;DHT22;11950;51.230;4.012;2023-02-03T00:43:32;11.40;99.90
23544;DHT22;11950;51.230;4.012;2023-02-03T00:45:59;11.40;99.90
23544;DHT22;11950;51.230;4.012;2023-02-03T00:48:25;11.40;99.90
23544;DHT22;11950;51.230;4.012;2023-02-03T00:50:51;11.40;99.90
23544;DHT22;11950;51.230;4.012;2023-02-03T00:53:17;11.40;99.90
23544;DHT22;11950;51.230;4.012;2023-02-03T00:55:44;11.40;99.90
23544;DHT22;11950;51.230;4.012;2023-02-03T00:58:10;11.50;99.90
23544;DHT22;11950;51.230;4.012;2023-02-03T01:00:37;11.50;99.90
23544;DHT22;11950;51.230;4.012;2023-02-03T01:03:03;11.50;99.90
23544;DHT22;11950;51.230;4.012;2023-02-03T01:05:30;11.50;99.90
23544;DHT22;11950;51.230;4.012;2023-02-03T01:07:56;11.50;99.90
23544;DHT22;11950;51.230;4.012;2023-02-03T01:10:23;11.50;99.90
23544;DHT22;11950;51.230;4.012;2023-02-03T01:12:49;11.40;99.90
23544;DHT22;11950;51.230;4.012;2023-02-03T01:15:16;11.40;99.90
23544;DHT22;11950;51.230;4.012;2023-02-03T01:17:42;11.40;99.90
23544;DHT22;11950;51.230;4.012;2023-02-03T01:20:10;11.50;99.90
23544;DHT22;11950;51.230;4.012;2023-02-03T01:22:42;11.40;99.90
23544;DHT22;11950;51.230;4.012;2023-02-03T01:25:08;11.50;99.90
23544;DHT22;11950;51.230;4.012;2023-02-03T01:27:34;11.50;99.90
23544;DHT22;11950;51.230;4.012;2023-02-03T01:30:00;11.50;99.90
23544;DHT22;11950;51.230;4.012;2023-02-03T01:32:27;11.50;99.90
23544;DHT22;11950;51.230;4.012;2023-02-03T01:34:53;11.50;99.90
23544;DHT22;11950;51.230;4.012;2023-02-03T01:37:19;11.50;99.90
23544;DHT22;11950;51.230;4.012;2023-02-03T01:39:45;11.50;99.90
23544;DHT22;11950;51.230;4.012;2023-02-03T01:42:13;11.50;99.90
23544;DHT22;11950;51.230;4.012;2023-02-03T01:47:34;11.50;99.90
23544;DHT22;11950;51.230;4.012;2023-02-03T01:50:20;11.50;99.90
23544;DHT22;11950;51.230;4.012;2023-02-03T01:52:51;11.50;99.90
23544;DHT22;11950;51.230;4.012;2023-02-03T01:55:26;11.40;99.90
23544;DHT22;11950;51.230;4.012;2023-02-03T02:00:48;11.50;99.90
23544;DHT22;11950;51.230;4.012;2023-02-03T02:03:18;11.40;99.90
23544;DHT22;11950;51.230;4.012;2023-02-03T02:08:26;11.40;99.90
23544;DHT22;11950;51.230;4.012;2023-02-03T02:10:54;11.40;99.90
23544;DHT22;11950;51.230;4.012;2023-02-03T02:13:22;11.40;99.90
23544;DHT22;11950;51.230;4.012;2023-02-03T02:16:11;11.50;99.90
23544;DHT22;11950;51.230;4.012;2023-02-03T02:29:59;11.50;99.90
23544;DHT22;11950;51.230;4.012;2023-02-03T02:36:07;11.50;99.90
23544;DHT22;11950;51.230;4.012;2023-02-03T02:41:23;11.50;99.90
23544;DHT22;11950;51.230;4.012;2023-02-03T02:44:06;11.40;99.90
23544;DHT22;11950;51.230;4.012;2023-02-03T02:46:40;11.40;99.90
23544;DHT22;11950;51.230;4.012;2023-02-03T02:49:13;11.50;99.90
23544;DHT22;11950;51.230;4.012;2023-02-03T02:51:42;11.40;99.90
23544;DHT22;11950;51.230;4.012;2023-02-03T02:54:17;11.40;99.90
23544;DHT22;11950;51.230;4.012;2023-02-03T02:56:48;11.40;99.90
23544;DHT22;11950;51.230;4.012;2023-02-03T02:59:16;11.40;99.90
23544;DHT22;11950;51.230;4.012;2023-02-03T03:01:42;11.40;99.90
23544;DHT22;11950;51.230;4.012;2023-02-03T03:04:11;11.40;99.90
23544;DHT22;11950;51.230;4.012;2023-02-03T03:09:39;11.50;99.90
23544;DHT22;11950;51.230;4.012;2023-02-03T03:12:17;11.50;99.90
23544;DHT22;11950;51.230;4.012;2023-02-03T03:14:51;10.00;99.90
23544;DHT22;11950;51.230;4.012;2023-02-03T03:17:27;11.50;99.90
23544;DHT22;11950;51.230;4.012;2023-02-03T03:20:01;11.50;99.90
23544;DHT22;11950;51.230;4.012;2023-02-03T03:22:34;11.60;99.90
23544;DHT22;11950;51.230;4.012;2023-02-03T03:25:18;11.60;99.90
23544;DHT22;11950;51.230;4.012;2023-02-03T03:27:53;11.60;99.90
23544;DHT22;11950;51.230;4.012;2023-02-03T03:30:23;11.60;99.90
23544;DHT22;11950;51.230;4.012;2023-02-03T03:32:51;11.60;99.90
23544;DHT22;11950;51.230;4.012;2023-02-03T03:35:18;11.60;99.90
23544;DHT22;11950;51.230;4.012;2023-02-03T03:37:57;11.60;99.90
23544;DHT22;11950;51.230;4.012;2023-02-03T03:40:32;11.60;99.90
23544;DHT22;11950;51.230;4.012;2023-02-03T03:43:07;11.60;99.90
23544;DHT22;11950;51.230;4.012;2023-02-03T03:51:16;11.60;99.90
23544;DHT22;11950;51.230;4.012;2023-02-03T03:53:46;11.60;99.90
23544;DHT22;11950;51.230;4.012;2023-02-03T03:56:21;11.50;99.90
23544;DHT22;11950;51.230;4.012;2023-02-03T03:58:50;11.60;99.90
23544;DHT22;11950;51.230;4.012;2023-02-03T04:01:17;11.50;99.90
23544;DHT22;11950;51.230;4.012;2023-02-03T04:03:47;11.50;99.90
23544;DHT22;11950;51.230;4.012;2023-02-03T04:06:13;11.50;99.90
23544;DHT22;11950;51.230;4.012;2023-02-03T04:08:40;11.50;99.90
23544;DHT22;11950;51.230;4.012;2023-02-03T04:11:07;11.50;99.90
23544;DHT22;11950;51.230;4.012;2023-02-03T04:13:33;11.60;99.90
23544;DHT22;11950;51.230;4.012;2023-02-03T04:15:59;11.60;99.90
23544;DHT22;11950;51.230;4.012;2023-02-03T04:18:25;11.60;99.90
23544;DHT22;11950;51.230;4.012;2023-02-03T04:20:52;11.60;99.90
23544;DHT22;11950;51.230;4.012;2023-02-03T04:23:18;11.60;99.90
23544;DHT22;11950;51.230;4.012;2023-02-03T04:25:44;11.50;99.90
23544;DHT22;11950;51.230;4.012;2023-02-03T04:28:10;11.50;99.90
23544;DHT22;11950;51.230;4.012;2023-02-03T04:30:37;11.50;99.90
23544;DHT22;11950;51.230;4.012;2023-02-03T04:33:03;11.60;99.90
23544;DHT22;11950;51.230;4.012;2023-02-03T04:35:29;11.50;99.90
23544;DHT22;11950;51.230;4.012;2023-02-03T04:37:55;11.60;99.90
23544;DHT22;11950;51.230;4.012;2023-02-03T04:40:22;11.60;99.90
23544;DHT22;11950;51.230;4.012;2023-02-03T04:42:48;11.60;99.90
23544;DHT22;11950;51.230;4.012;2023-02-03T04:45:14;11.50;99.90
23544;DHT22;11950;51.230;4.012;2023-02-03T04:47:41;11.60;99.90
23544;DHT22;11950;51.230;4.012;2023-02-03T04:50:07;11.60;99.90
23544;DHT22;11950;51.230;4.012;2023-02-03T04:52:33;11.60;99.90
23544;DHT22;11950;51.230;4.012;2023-02-03T04:55:00;11.60;99.90
23544;DHT22;11950;51.230;4.012;2023-02-03T04:57:26;11.60;99.90
23544;DHT22;11950;51.230;4.012;2023-02-03T04:59:52;11.60;99.90
23544;DHT22;11950;51.230;4.012;2023-02-03T05:02:19;11.60;99.90
23544;DHT22;11950;51.230;4.012;2023-02-03T05:04:45;11.70;99.90
23544;DHT22;11950;51.230;4.012;2023-02-03T05:07:11;11.60;99.90
23544;DHT22;11950;51.230;4.012;2023-02-03T05:09:37;11.60;99.90
23544;DHT22;11950;51.230;4.012;2023-02-03T05:12:04;11.60;99.90
23544;DHT22;11950;51.230;4.012;2023-02-03T05:14:30;11.50;99.90
23544;DHT22;11950;51.230;4.012;2023-02-03T05:16:56;11.50;99.90
23544;DHT22;11950;51.230;4.012;2023-02-03T05:19:22;11.60;99.90
23544;DHT22;11950;51.230;4.012;2023-02-03T05:21:49;11.60;99.90
23544;DHT22;11950;51.230;4.012;2023-02-03T05:24:15;11.60;99.90
23544;DHT22;11950;51.230;4.012;2023-02-03T05:26:41;11.50;99.90
23544;DHT22;11950;51.230;4.012;2023-02-03T05:29:08;11.60;99.90
23544;DHT22;11950;51.230;4.012;2023-02-03T05:31:36;11.50;99.90
23544;DHT22;11950;51.230;4.012;2023-02-03T05:34:02;11.60;99.90
23544;DHT22;11950;51.230;4.012;2023-02-03T05:36:29;11.60;99.90
23544;DHT22;11950;51.230;4.012;2023-02-03T05:38:55;11.50;99.90
23544;DHT22;11950;51.230;4.012;2023-02-03T05:41:21;11.50;99.90
23544;DHT22;11950;51.230;4.012;2023-02-03T05:44:06;11.40;99.90
23544;DHT22;11950;51.230;4.012;2023-02-03T05:46:32;11.40;99.90
23544;DHT22;11950;51.230;4.012;2023-02-03T05:48:59;11.40;99.90
23544;DHT22;11950;51.230;4.012;2023-02-03T05:51:25;11.30;99.90
23544;DHT22;11950;51.230;4.012;2023-02-03T05:53:51;11.30;99.90
23544;DHT22;11950;51.230;4.012;2023-02-03T05:56:18;11.30;99.90
23544;DHT22;11950;51.230;4.012;2023-02-03T05:58:45;11.30;99.90
23544;DHT22;11950;51.230;4.012;2023-02-03T06:01:11;11.30;99.90
23544;DHT22;11950;51.230;4.012;2023-02-03T06:03:37;11.20;99.90
23544;DHT22;11950;51.230;4.012;2023-02-03T06:06:03;11.20;99.90
23544;DHT22;11950;51.230;4.012;2023-02-03T06:08:30;11.20;99.90
23544;DHT22;11950;51.230;4.012;2023-02-03T06:10:59;11.20;99.90
23544;DHT22;11950;51.230;4.012;2023-02-03T06:13:26;11.10;99.90
23544;DHT22;11950;51.230;4.012;2023-02-03T06:15:53;11.10;99.90
23544;DHT22;11950;51.230;4.012;2023-02-03T06:18:20;11.10;99.90
23544;DHT22;11950;51.230;4.012;2023-02-03T06:20:46;11.00;99.90
23544;DHT22;11950;51.230;4.012;2023-02-03T06:23:12;11.10;99.90
23544;DHT22;11950;51.230;4.012;2023-02-03T06:25:39;11.10;99.90
23544;DHT22;11950;51.230;4.012;2023-02-03T06:28:05;11.10;99.90
23544;DHT22;11950;51.230;4.012;2023-02-03T06:30:31;11.20;99.90
23544;DHT22;11950;51.230;4.012;2023-02-03T06:32:57;11.20;99.90
23544;DHT22;11950;51.230;4.012;2023-02-03T06:35:24;11.20;99.90
23544;DHT22;11950;51.230;4.012;2023-02-03T06:37:50;11.20;99.90
23544;DHT22;11950;51.230;4.012;2023-02-03T06:40:17;11.20;99.90
23544;DHT22;11950;51.230;4.012;2023-02-03T06:42:46;11.20;99.90
23544;DHT22;11950;51.230;4.012;2023-02-03T06:45:13;11.20;99.90
23544;DHT22;11950;51.230;4.012;2023-02-03T06:47:44;11.20;99.90
23544;DHT22;11950;51.230;4.012;2023-02-03T06:50:13;11.20;99.90
23544;DHT22;11950;51.230;4.012;2023-02-03T06:52:40;11.20;99.90
23544;DHT22;11950;51.230;4.012;2023-02-03T06:55:06;11.20;99.90
23544;DHT22;11950;51.230;4.012;2023-02-03T06:57:33;11.10;99.90
23544;DHT22;11950;51.230;4.012;2023-02-03T06:59:59;11.10;99.90
23544;DHT22;11950;51.230;4.012;2023-02-03T07:02:25;11.10;99.90
23544;DHT22;11950;51.230;4.012;2023-02-03T07:04:52;11.10;99.90
23544;DHT22;11950;51.230;4.012;2023-02-03T07:07:18;11.10;99.90
23544;DHT22;11950;51.230;4.012;2023-02-03T07:09:44;11.10;99.90
23544;DHT22;11950;51.230;4.012;2023-02-03T07:12:10;11.10;99.90
23544;DHT22;11950;51.230;4.012;2023-02-03T07:14:36;11.10;99.90
23544;DHT22;11950;51.230;4.012;2023-02-03T07:17:05;11.10;99.90
23544;DHT22;11950;51.230;4.012;2023-02-03T07:19:32;11.10;99.90
23544;DHT22;11950;51.230;4.012;2023-02-03T07:21:58;11.10;99.90
23544;DHT22;11950;51.230;4.012;2023-02-03T07:24:24;11.10;99.90
23544;DHT22;11950;51.230;4.012;2023-02-03T07:26:51;11.00;99.90
23544;DHT22;11950;51.230;4.012;2023-02-03T07:29:18;11.00;99.90
23544;DHT22;11950;51.230;4.012;2023-02-03T07:31:44;11.10;99.90
23544;DHT22;11950;51.230;4.012;2023-02-03T07:34:10;11.10;99.90
23544;DHT22;11950;51.230;4.012;2023-02-03T07:36:36;11.20;99.90
23544;DHT22;11950;51.230;4.012;2023-02-03T07:39:03;11.00;99.90
23544;DHT22;11950;51.230;4.012;2023-02-03T07:41:29;11.10;99.90
23544;DHT22;11950;51.230;4.012;2023-02-03T07:43:56;11.10;99.90
23544;DHT22;11950;51.230;4.012;2023-02-03T07:46:22;11.10;99.90
23544;DHT22;11950;51.230;4.012;2023-02-03T07:48:48;11.10;99.90
23544;DHT22;11950;51.230;4.012;2023-02-03T07:51:14;11.10;99.90
23544;DHT22;11950;51.230;4.012;2023-02-03T07:53:41;11.10;99.90
23544;DHT22;11950;51.230;4.012;2023-02-03T07:56:07;11.10;99.90
23544;DHT22;11950;51.230;4.012;2023-02-03T07:58:33;11.10;99.90
23544;DHT22;11950;51.230;4.012;2023-02-03T08:00:59;11.20;99.90
23544;DHT22;11950;51.230;4.012;2023-02-03T08:03:26;11.20;99.90
23544;DHT22;11950;51.230;4.012;2023-02-03T08:05:52;11.20;99.90
23544;DHT22;11950;51.230;4.012;2023-02-03T08:08:18;11.20;99.90
23544;DHT22;11950;51.230;4.012;2023-02-03T08:10:44;11.20;99.90
23544;DHT22;11950;51.230;4.012;2023-02-03T08:13:11;11.20;99.90
23544;DHT22;11950;51.230;4.012;2023-02-03T08:15:37;11.30;99.90
23544;DHT22;11950;51.230;4.012;2023-02-03T08:18:03;11.20;99.90
23544;DHT22;11950;51.230;4.012;2023-02-03T08:20:29;11.30;99.90
23544;DHT22;11950;51.230;4.012;2023-02-03T08:22:56;11.30;99.90
23544;DHT22;11950;51.230;4.012;2023-02-03T08:25:22;11.30;99.90
23544;DHT22;11950;51.230;4.012;2023-02-03T08:27:48;11.30;99.90
23544;DHT22;11950;51.230;4.012;2023-02-03T08:30:14;11.40;99.90
23544;DHT22;11950;51.230;4.012;2023-02-03T08:32:41;11.30;99.90
23544;DHT22;11950;51.230;4.012;2023-02-03T08:35:07;11.40;99.90
23544;DHT22;11950;51.230;4.012;2023-02-03T08:37:34;11.40;99.90
23544;DHT22;11950;51.230;4.012;2023-02-03T08:40:00;11.40;99.90
23544;DHT22;11950;51.230;4.012;2023-02-03T08:42:27;11.50;99.90
23544;DHT22;11950;51.230;4.012;2023-02-03T08:44:53;11.60;99.90
23544;DHT22;11950;51.230;4.012;2023-02-03T08:47:19;11.60;99.90
23544;DHT22;11950;51.230;4.012;2023-02-03T08:49:46;11.70;99.90
23544;DHT22;11950;51.230;4.012;2023-02-03T08:52:15;11.70;99.90
23544;DHT22;11950;51.230;4.012;2023-02-03T08:54:42;11.70;99.90
23544;DHT22;11950;51.230;4.012;2023-02-03T08:57:08;11.70;99.90
23544;DHT22;11950;51.230;4.012;2023-02-03T08:59:37;11.70;99.90
23544;DHT22;11950;51.230;4.012;2023-02-03T09:02:07;11.80;99.90
23544;DHT22;11950;51.230;4.012;2023-02-03T09:04:34;11.80;99.90
23544;DHT22;11950;51.230;4.012;2023-02-03T09:07:01;11.90;99.90
23544;DHT22;11950;51.230;4.012;2023-02-03T09:09:29;11.90;99.90
23544;DHT22;11950;51.230;4.012;2023-02-03T09:11:56;12.00;99.90
23544;DHT22;11950;51.230;4.012;2023-02-03T09:14:36;12.00;99.90
23544;DHT22;11950;51.230;4.012;2023-02-03T09:17:03;12.10;99.90
23544;DHT22;11950;51.230;4.012;2023-02-03T09:19:30;12.10;99.90
23544;DHT22;11950;51.230;4.012;2023-02-03T09:21:57;12.10;99.90
23544;DHT22;11950;51.230;4.012;2023-02-03T09:24:23;12.10;99.90
23544;DHT22;11950;51.230;4.012;2023-02-03T09:26:50;12.20;99.90
23544;DHT22;11950;51.230;4.012;2023-02-03T09:29:16;12.20;99.90
23544;DHT22;11950;51.230;4.012;2023-02-03T09:31:43;12.20;99.90
23544;DHT22;11950;51.230;4.012;2023-02-03T09:34:09;12.30;99.90
23544;DHT22;11950;51.230;4.012;2023-02-03T09:36:35;12.30;99.90
23544;DHT22;11950;51.230;4.012;2023-02-03T09:39:02;12.30;99.90
23544;DHT22;11950;51.230;4.012;2023-02-03T09:47:04;12.50;99.90
23544;DHT22;11950;51.230;4.012;2023-02-03T09:49:47;12.50;99.90
23544;DHT22;11950;51.230;4.012;2023-02-03T09:52:41;12.50;99.90
23544;DHT22;11950;51.230;4.012;2023-02-03T09:55:14;12.60;99.90
23544;DHT22;11950;51.230;4.012;2023-02-03T09:57:46;12.60;99.90
23544;DHT22;11950;51.230;4.012;2023-02-03T10:00:19;12.70;99.90
23544;DHT22;11950;51.230;4.012;2023-02-03T10:08:28;12.80;99.90
23544;DHT22;11950;51.230;4.012;2023-02-03T10:17:13;12.90;99.90
23544;DHT22;11950;51.230;4.012;2023-02-03T10:22:58;12.90;99.90
23544;DHT22;11950;51.230;4.012;2023-02-03T10:25:37;13.00;99.90
23544;DHT22;11950;51.230;4.012;2023-02-03T10:28:20;13.00;99.90
23544;DHT22;11950;51.230;4.012;2023-02-03T10:31:17;13.00;99.90
23544;DHT22;11950;51.230;4.012;2023-02-03T10:33:45;13.10;99.90
23544;DHT22;11950;51.230;4.012;2023-02-03T10:36:21;13.10;99.90
23544;DHT22;11950;51.230;4.012;2023-02-03T10:41:28;13.10;99.90
23544;DHT22;11950;51.230;4.012;2023-02-03T10:43:55;13.10;99.90
23544;DHT22;11950;51.230;4.012;2023-02-03T10:46:36;13.10;99.90
23544;DHT22;11950;51.230;4.012;2023-02-03T10:49:03;13.10;99.90
23544;DHT22;11950;51.230;4.012;2023-02-03T10:51:43;13.00;99.90
23544;DHT22;11950;51.230;4.012;2023-02-03T10:54:31;13.00;99.90
23544;DHT22;11950;51.230;4.012;2023-02-03T10:57:10;13.00;99.90
23544;DHT22;11950;51.230;4.012;2023-02-03T10:59:42;13.00;99.90
23544;DHT22;11950;51.230;4.012;2023-02-03T11:02:09;13.00;99.90
23544;DHT22;11950;51.230;4.012;2023-02-03T11:04:45;12.90;99.90
23544;DHT22;11950;51.230;4.012;2023-02-03T11:07:25;12.90;99.90
23544;DHT22;11950;51.230;4.012;2023-02-03T11:09:51;12.90;99.90
23544;DHT22;11950;51.230;4.012;2023-02-03T11:12:19;13.00;99.90
23544;DHT22;11950;51.230;4.012;2023-02-03T11:14:49;13.00;99.90
23544;DHT22;11950;51.230;4.012;2023-02-03T11:17:21;13.00;99.90
23544;DHT22;11950;51.230;4.012;2023-02-03T11:19:50;13.00;99.90
23544;DHT22;11950;51.230;4.012;2023-02-03T11:22:33;13.10;99.90
23544;DHT22;11950;51.230;4.012;2023-02-03T11:25:03;13.10;99.90
23544;DHT22;11950;51.230;4.012;2023-02-03T11:27:32;13.00;99.90
23544;DHT22;11950;51.230;4.012;2023-02-03T11:30:27;13.10;99.90
23544;DHT22;11950;51.230;4.012;2023-02-03T11:33:00;13.00;99.90
23544;DHT22;11950;51.230;4.012;2023-02-03T11:35:28;13.00;99.90
23544;DHT22;11950;51.230;4.012;2023-02-03T11:37:58;13.00;99.90
23544;DHT22;11950;51.230;4.012;2023-02-03T11:40:33;13.10;99.90
23544;DHT22;11950;51.230;4.012;2023-02-03T11:43:14;13.10;99.90
23544;DHT22;11950;51.230;4.012;2023-02-03T11:46:02;13.10;99.90
23544;DHT22;11950;51.230;4.012;2023-02-03T11:48:38;13.00;99.90
23544;DHT22;11950;51.230;4.012;2023-02-03T11:51:16;13.10;99.90
23544;DHT22;11950;51.230;4.012;2023-02-03T11:54:05;13.00;99.90
23544;DHT22;11950;51.230;4.012;2023-02-03T12:08:26;13.00;99.90
23544;DHT22;11950;51.230;4.012;2023-02-03T12:10:51;13.00;99.90
23544;DHT22;11950;51.230;4.012;2023-02-03T12:31:38;13.10;99.90
23544;DHT22;11950;51.230;4.012;2023-02-03T12:34:14;13.10;99.90
23544;DHT22;11950;51.230;4.012;2023-02-03T12:37:00;13.10;99.90
23544;DHT22;11950;51.230;4.012;2023-02-03T12:39:35;13.10;99.90
23544;DHT22;11950;51.230;4.012;2023-02-03T12:45:02;13.20;99.90
23544;DHT22;11950;51.230;4.012;2023-02-03T12:47:46;13.20;99.90
23544;DHT22;11950;51.230;4.012;2023-02-03T12:53:13;13.20;99.90
23544;DHT22;11950;51.230;4.012;2023-02-03T12:55:45;13.20;99.90
23544;DHT22;11950;51.230;4.012;2023-02-03T12:58:20;13.20;99.90
23544;DHT22;11950;51.230;4.012;2023-02-03T13:00:53;13.20;99.90
23544;DHT22;11950;51.230;4.012;2023-02-03T13:06:31;13.10;99.90
23544;DHT22;11950;51.230;4.012;2023-02-03T13:12:06;13.10;99.90
23544;DHT22;11950;51.230;4.012;2023-02-03T13:14:41;13.20;99.90
23544;DHT22;11950;51.230;4.012;2023-02-03T13:17:21;13.20;99.90
23544;DHT22;11950;51.230;4.012;2023-02-03T13:19:52;13.30;99.90
23544;DHT22;11950;51.230;4.012;2023-02-03T13:22:20;13.20;99.90
23544;DHT22;11950;51.230;4.012;2023-02-03T13:27:41;13.30;99.90
23544;DHT22;11950;51.230;4.012;2023-02-03T13:33:47;13.30;99.90
23544;DHT22;11950;51.230;4.012;2023-02-03T13:41:50;13.40;99.90
23544;DHT22;11950;51.230;4.012;2023-02-03T13:44:22;13.40;99.90
23544;DHT22;11950;51.230;4.012;2023-02-03T13:46:52;13.40;99.90
23544;DHT22;11950;51.230;4.012;2023-02-03T13:49:24;13.30;99.90
23544;DHT22;11950;51.230;4.012;2023-02-03T13:51:52;13.30;99.90
23544;DHT22;11950;51.230;4.012;2023-02-03T13:54:29;13.30;99.90
23544;DHT22;11950;51.230;4.012;2023-02-03T13:57:06;13.30;99.90
23544;DHT22;11950;51.230;4.012;2023-02-03T13:59:44;13.30;99.90
23544;DHT22;11950;51.230;4.012;2023-02-03T14:04:54;13.30;99.90
23544;DHT22;11950;51.230;4.012;2023-02-03T14:10:20;13.20;99.90
23544;DHT22;11950;51.230;4.012;2023-02-03T14:17:55;13.30;99.90
23544;DHT22;11950;51.230;4.012;2023-02-03T14:22:59;13.30;99.90
23544;DHT22;11950;51.230;4.012;2023-02-03T14:25:47;13.30;99.90
23544;DHT22;11950;51.230;4.012;2023-02-03T14:28:19;13.30;99.90
23544;DHT22;11950;51.230;4.012;2023-02-03T14:31:09;13.30;99.90
23544;DHT22;11950;51.230;4.012;2023-02-03T14:36:32;13.30;99.90
23544;DHT22;11950;51.230;4.012;2023-02-03T14:45:09;13.30;99.90
23544;DHT22;11950;51.230;4.012;2023-02-03T14:47:58;13.30;99.90
23544;DHT22;11950;51.230;4.012;2023-02-03T14:50:55;13.30;99.90
23544;DHT22;11950;51.230;4.012;2023-02-03T14:53:30;13.30;99.90
23544;DHT22;11950;51.230;4.012;2023-02-03T14:56:05;13.30;99.90
23544;DHT22;11950;51.230;4.012;2023-02-03T14:58:45;13.30;99.90
23544;DHT22;11950;51.230;4.012;2023-02-03T15:06:44;13.20;99.90
23544;DHT22;11950;51.230;4.012;2023-02-03T15:09:44;13.20;99.90
23544;DHT22;11950;51.230;4.012;2023-02-03T15:12:25;13.20;99.90
23544;DHT22;11950;51.230;4.012;2023-02-03T15:14:52;13.30;99.90
23544;DHT22;11950;51.230;4.012;2023-02-03T15:19:45;13.30;99.90
23544;DHT22;11950;51.230;4.012;2023-02-03T15:22:26;13.30;99.90
23544;DHT22;11950;51.230;4.012;2023-02-03T15:25:02;13.30;99.90
23544;DHT22;11950;51.230;4.012;2023-02-03T15:27:38;13.30;99.90
23544;DHT22;11950;51.230;4.012;2023-02-03T15:30:23;13.30;99.90
23544;DHT22;11950;51.230;4.012;2023-02-03T15:33:19;11.90;99.90
23544;DHT22;11950;51.230;4.012;2023-02-03T15:35:50;13.30;99.90
23544;DHT22;11950;51.230;4.012;2023-02-03T15:38:28;13.20;99.90
23544;DHT22;11950;51.230;4.012;2023-02-03T15:40:56;13.20;99.90
23544;DHT22;11950;51.230;4.012;2023-02-03T15:48:41;13.20;99.90
23544;DHT22;11950;51.230;4.012;2023-02-03T15:53:45;13.20;99.90
23544;DHT22;11950;51.230;4.012;2023-02-03T15:56:39;13.20;99.90
23544;DHT22;11950;51.230;4.012;2023-02-03T15:59:30;13.20;99.90
23544;DHT22;11950;51.230;4.012;2023-02-03T16:05:30;13.60;99.90
23544;DHT22;11950;51.230;4.012;2023-02-03T16:10:54;12.80;99.90
23544;DHT22;11950;51.230;4.012;2023-02-03T16:13:28;12.60;99.90
23544;DHT22;11950;51.230;4.012;2023-02-03T16:16:14;12.90;99.90
23544;DHT22;11950;51.230;4.012;2023-02-03T16:18:59;12.60;99.90
23544;DHT22;11950;51.230;4.012;2023-02-03T16:24:40;14.50;99.90
23544;DHT22;11950;51.230;4.012;2023-02-03T16:30:40;10.40;99.90
23544;DHT22;11950;51.230;4.012;2023-02-03T16:33:17;12.40;99.90
23544;DHT22;11950;51.230;4.012;2023-02-03T16:36:12;12.30;99.90
23544;DHT22;11950;51.230;4.012;2023-02-03T16:39:01;12.30;99.90
23544;DHT22;11950;51.230;4.012;2023-02-03T16:41:46;12.20;99.90
23544;DHT22;11950;51.230;4.012;2023-02-03T16:44:31;12.20;99.90
23544;DHT22;11950;51.230;4.012;2023-02-03T16:47:26;12.20;99.90
23544;DHT22;11950;51.230;4.012;2023-02-03T16:50:19;12.20;99.90
23544;DHT22;11950;51.230;4.012;2023-02-03T16:53:08;12.20;99.90
23544;DHT22;11950;51.230;4.012;2023-02-03T16:55:36;12.20;99.90
23544;DHT22;11950;51.230;4.012;2023-02-03T16:58:03;12.20;99.90
23544;DHT22;11950;51.230;4.012;2023-02-03T17:00:29;12.20;99.90
23544;DHT22;11950;51.230;4.012;2023-02-03T17:02:55;12.10;99.90
23544;DHT22;11950;51.230;4.012;2023-02-03T17:05:22;12.20;99.90
23544;DHT22;11950;51.230;4.012;2023-02-03T17:07:48;12.10;99.90
23544;DHT22;11950;51.230;4.012;2023-02-03T17:10:16;12.20;99.90
23544;DHT22;11950;51.230;4.012;2023-02-03T17:12:42;12.10;99.90
23544;DHT22;11950;51.230;4.012;2023-02-03T17:15:09;12.10;99.90
23544;DHT22;11950;51.230;4.012;2023-02-03T17:17:35;12.10;99.90
23544;DHT22;11950;51.230;4.012;2023-02-03T17:20:01;12.10;99.90
23544;DHT22;11950;51.230;4.012;2023-02-03T17:22:28;12.10;99.90
23544;DHT22;11950;51.230;4.012;2023-02-03T17:24:58;12.10;99.90
23544;DHT22;11950;51.230;4.012;2023-02-03T17:27:24;12.10;99.90
23544;DHT22;11950;51.230;4.012;2023-02-03T17:29:51;12.10;99.90
23544;DHT22;11950;51.230;4.012;2023-02-03T17:32:17;12.10;99.90
23544;DHT22;11950;51.230;4.012;2023-02-03T17:34:43;12.10;99.90
23544;DHT22;11950;51.230;4.012;2023-02-03T17:37:10;12.10;99.90
23544;DHT22;11950;51.230;4.012;2023-02-03T17:39:36;12.10;99.90
23544;DHT22;11950;51.230;4.012;2023-02-03T17:42:03;12.10;99.90
23544;DHT22;11950;51.230;4.012;2023-02-03T17:44:29;12.10;99.90
23544;DHT22;11950;51.230;4.012;2023-02-03T17:46:56;12.10;99.90
23544;DHT22;11950;51.230;4.012;2023-02-03T17:49:22;12.10;99.90
23544;DHT22;11950;51.230;4.012;2023-02-03T17:51:48;12.10;99.90
23544;DHT22;11950;51.230;4.012;2023-02-03T17:54:15;12.20;99.90
23544;DHT22;11950;51.230;4.012;2023-02-03T17:56:41;12.20;99.90
23544;DHT22;11950;51.230;4.012;2023-02-03T17:59:08;12.10;99.90
23544;DHT22;11950;51.230;4.012;2023-02-03T18:01:35;12.20;99.90
23544;DHT22;11950;51.230;4.012;2023-02-03T18:04:03;12.10;99.90
23544;DHT22;11950;51.230;4.012;2023-02-03T18:06:31;12.10;99.90
23544;DHT22;11950;51.230;4.012;2023-02-03T18:09:06;12.20;99.90
23544;DHT22;11950;51.230;4.012;2023-02-03T18:11:34;12.10;99.90
23544;DHT22;11950;51.230;4.012;2023-02-03T18:14:01;12.10;99.90
23544;DHT22;11950;51.230;4.012;2023-02-03T18:16:29;12.20;99.90
23544;DHT22;11950;51.230;4.012;2023-02-03T18:18:59;12.10;99.90
23544;DHT22;11950;51.230;4.012;2023-02-03T18:21:26;12.20;99.90
23544;DHT22;11950;51.230;4.012;2023-02-03T18:23:53;12.20;99.90
23544;DHT22;11950;51.230;4.012;2023-02-03T18:26:29;12.10;99.90
23544;DHT22;11950;51.230;4.012;2023-02-03T18:29:03;12.20;99.90
23544;DHT22;11950;51.230;4.012;2023-02-03T18:31:29;12.20;99.90
23544;DHT22;11950;51.230;4.012;2023-02-03T18:34:00;12.20;99.90